createdAt,value
2018-01-16T00:02:20.776Z,6.90
2018-01-16T00:04:48.312Z,6.80
2018-01-16T00:07:15.826Z,6.90
2018-01-16T00:09:43.340Z,6.90
2018-01-16T00:12:10.867Z,7.00
2018-01-16T00:14:38.476Z,6.90
2018-01-16T00:17:05.994Z,6.90
2018-01-16T00:19:33.492Z,6.90
2018-01-16T00:22:01.011Z,6.90
2018-01-16T00:24:28.519Z,7.00
2018-01-16T00:26:56.803Z,6.90
2018-01-16T00:29:24.337Z,6.90
2018-01-16T00:31:51.848Z,6.80
2018-01-16T00:34:19.369Z,6.80
2018-01-16T00:36:47.659Z,6.80
2018-01-16T00:39:15.186Z,6.80
2018-01-16T00:41:42.740Z,6.80
2018-01-16T00:44:10.252Z,6.80
2018-01-16T00:46:37.775Z,6.80
2018-01-16T00:49:06.061Z,6.80
2018-01-16T00:51:33.604Z,6.70
2018-01-16T00:54:01.891Z,6.80
2018-01-16T00:56:30.167Z,6.80
2018-01-16T00:58:58.444Z,6.80
2018-01-16T01:01:26.708Z,6.80
2018-01-16T01:03:54.210Z,6.80
2018-01-16T01:06:21.717Z,6.80
2018-01-16T01:08:49.268Z,6.80
2018-01-16T01:11:16.776Z,6.90
2018-01-16T01:13:44.299Z,6.90
2018-01-16T01:16:12.570Z,7.00
2018-01-16T01:18:40.135Z,7.00
2018-01-16T01:21:07.667Z,7.10
2018-01-16T01:23:35.155Z,7.10
2018-01-16T01:26:02.667Z,7.20
2018-01-16T01:28:30.215Z,7.10
2018-01-16T01:30:58.524Z,7.10
2018-01-16T01:33:26.045Z,7.10
2018-01-16T01:35:53.558Z,7.10
2018-01-16T01:38:21.885Z,7.10
2018-01-16T01:40:49.391Z,7.10
2018-01-16T01:43:16.930Z,7.00
2018-01-16T01:45:44.455Z,7.10
2018-01-16T01:48:11.980Z,7.10
2018-01-16T01:50:40.272Z,7.10
2018-01-16T01:53:07.806Z,7.10
2018-01-16T01:55:36.064Z,7.10
2018-01-16T01:58:03.640Z,7.10
2018-01-16T02:00:31.914Z,7.10
2018-01-16T02:02:59.425Z,7.10
2018-01-16T02:05:26.950Z,7.20
2018-01-16T02:07:55.235Z,7.20
2018-01-16T02:10:22.776Z,7.20
2018-01-16T02:12:51.054Z,7.20
2018-01-16T02:15:18.564Z,7.20
2018-01-16T02:17:46.110Z,7.20
2018-01-16T02:20:13.624Z,7.20
2018-01-16T02:22:41.882Z,7.30
2018-01-16T02:25:09.414Z,7.20
2018-01-16T02:27:36.927Z,7.30
2018-01-16T02:30:04.481Z,7.30
2018-01-16T02:32:32.811Z,7.40
2018-01-16T02:35:00.311Z,7.40
2018-01-16T02:37:28.578Z,7.40
2018-01-16T02:39:56.332Z,7.40
2018-01-16T02:42:23.835Z,7.40
2018-01-16T02:44:51.380Z,7.40
2018-01-16T02:47:18.910Z,7.40
2018-01-16T02:49:46.439Z,7.30
2018-01-16T02:52:13.949Z,7.30
2018-01-16T02:54:41.505Z,7.30
2018-01-16T02:57:09.011Z,7.30
2018-01-16T02:59:36.563Z,7.20
2018-01-16T03:02:04.085Z,7.20
2018-01-16T03:04:32.345Z,7.30
2018-01-16T03:07:00.687Z,7.10
2018-01-16T03:09:28.218Z,7.10
2018-01-16T03:11:55.747Z,7.10
2018-01-16T03:14:24.011Z,7.00
2018-01-16T03:16:51.540Z,7.00
2018-01-16T03:19:19.047Z,7.00
2018-01-16T03:21:47.319Z,7.00
2018-01-16T03:24:15.621Z,7.00
2018-01-16T03:26:43.452Z,7.00
2018-01-16T03:29:11.759Z,7.00
2018-01-16T03:31:39.329Z,7.00
2018-01-16T03:34:06.826Z,7.00
2018-01-16T03:36:34.344Z,6.90
2018-01-16T03:39:01.875Z,6.90
2018-01-16T03:41:30.143Z,6.90
2018-01-16T03:43:58.449Z,7.00
2018-01-16T03:46:25.951Z,7.00
2018-01-16T03:48:53.495Z,7.00
2018-01-16T03:51:21.154Z,7.00
2018-01-16T03:53:48.658Z,7.00
2018-01-16T03:56:16.178Z,7.00
2018-01-16T03:58:43.684Z,7.00
2018-01-16T04:01:11.979Z,7.00
2018-01-16T04:03:39.494Z,7.00
2018-01-16T04:06:07.027Z,7.00
2018-01-16T04:08:34.536Z,7.00
2018-01-16T04:11:02.855Z,7.10
2018-01-16T04:13:30.350Z,7.10
2018-01-16T04:15:57.867Z,7.10
2018-01-16T04:18:25.390Z,7.10
2018-01-16T04:20:52.973Z,7.10
2018-01-16T04:23:20.499Z,7.10
2018-01-16T04:25:48.808Z,7.10
2018-01-16T04:28:16.354Z,7.10
2018-01-16T04:30:43.879Z,7.10
2018-01-16T04:33:11.374Z,7.00
2018-01-16T04:35:38.884Z,7.10
2018-01-16T04:38:06.404Z,7.10
2018-01-16T04:40:33.888Z,7.10
2018-01-16T04:43:01.411Z,7.00
2018-01-16T04:45:28.908Z,7.10
2018-01-16T04:47:56.423Z,7.10
2018-01-16T04:50:23.939Z,7.10
2018-01-16T04:52:51.439Z,7.00
2018-01-16T04:55:18.964Z,7.00
2018-01-16T04:57:46.470Z,7.00
2018-01-16T05:00:13.983Z,7.00
2018-01-16T05:02:41.481Z,7.00
2018-01-16T05:05:09.011Z,7.00
2018-01-16T05:07:36.541Z,7.00
2018-01-16T05:10:04.027Z,7.00
2018-01-16T05:12:32.313Z,7.00
2018-01-16T05:14:59.833Z,7.00
2018-01-16T05:17:27.366Z,7.00
2018-01-16T05:19:54.878Z,7.00
2018-01-16T05:22:23.162Z,7.10
2018-01-16T05:24:51.442Z,7.10
2018-01-16T05:27:18.949Z,7.10
2018-01-16T05:29:46.472Z,7.10
2018-01-16T05:32:13.975Z,7.10
2018-01-16T05:34:41.498Z,7.10
2018-01-16T05:37:09.016Z,7.10
2018-01-16T05:39:37.283Z,7.00
2018-01-16T05:42:04.793Z,7.00
2018-01-16T05:44:32.294Z,7.10
2018-01-16T05:46:59.815Z,7.10
2018-01-16T05:49:27.357Z,7.10
2018-01-16T05:51:54.891Z,7.20
2018-01-16T05:54:23.164Z,7.20
2018-01-16T05:56:51.455Z,7.20
2018-01-16T05:59:19.020Z,7.10
2018-01-16T06:01:46.524Z,7.20
2018-01-16T06:04:14.043Z,7.10
2018-01-16T06:06:41.546Z,7.20
2018-01-16T06:09:09.082Z,7.20
2018-01-16T06:11:36.729Z,7.20
2018-01-16T06:14:04.234Z,7.20
2018-01-16T06:16:31.761Z,7.30
2018-01-16T06:18:59.275Z,7.30
2018-01-16T06:21:27.569Z,7.20
2018-01-16T06:23:55.054Z,7.20
2018-01-16T06:26:22.571Z,7.20
2018-01-16T06:28:50.869Z,7.20
2018-01-16T06:31:18.408Z,7.20
2018-01-16T06:33:46.713Z,7.20
2018-01-16T06:36:14.258Z,7.20
2018-01-16T06:38:42.142Z,7.20
2018-01-16T06:41:09.645Z,7.30
2018-01-16T06:43:37.176Z,7.30
2018-01-16T06:46:04.670Z,7.30
2018-01-16T06:48:32.973Z,7.30
2018-01-16T06:51:00.515Z,7.30
2018-01-16T06:53:28.823Z,7.40
2018-01-16T06:55:56.360Z,7.40
2018-01-16T06:58:23.908Z,7.40
2018-01-16T07:00:51.466Z,7.40
2018-01-16T07:03:19.771Z,7.50
2018-01-16T07:05:47.290Z,7.50
2018-01-16T07:08:14.794Z,7.60
2018-01-16T07:10:42.347Z,7.60
2018-01-16T07:13:09.849Z,7.60
2018-01-16T07:15:37.386Z,7.60
2018-01-16T07:18:04.938Z,7.70
2018-01-16T07:20:32.449Z,7.60
2018-01-16T07:23:00.731Z,7.70
2018-01-16T07:25:29.002Z,7.70
2018-01-16T07:27:57.080Z,7.70
2018-01-16T07:30:25.336Z,7.60
2018-01-16T07:32:53.636Z,7.60
2018-01-16T07:35:21.151Z,7.70
2018-01-16T07:37:49.088Z,7.60
2018-01-16T07:40:16.626Z,7.60
2018-01-16T07:42:44.129Z,7.70
2018-01-16T07:45:11.681Z,7.70
2018-01-16T07:47:39.194Z,7.70
2018-01-16T07:50:06.715Z,7.80
2018-01-16T07:52:34.233Z,7.80
2018-01-16T07:55:01.756Z,7.80
2018-01-16T07:57:30.063Z,7.90
2018-01-16T07:59:57.588Z,7.90
2018-01-16T08:02:25.868Z,7.90
2018-01-16T08:04:54.177Z,8.00
2018-01-16T08:07:21.713Z,8.00
2018-01-16T08:09:49.994Z,8.00
2018-01-16T08:12:17.540Z,8.00
2018-01-16T08:14:45.813Z,7.90
2018-01-16T08:17:14.746Z,7.90
2018-01-16T08:19:42.263Z,7.80
2018-01-16T08:22:09.768Z,7.80
2018-01-16T08:24:37.312Z,7.90
2018-01-16T08:27:04.823Z,7.80
2018-01-16T08:29:32.326Z,7.80
2018-01-16T08:31:59.864Z,7.80
2018-01-16T08:34:28.135Z,7.80
2018-01-16T08:36:56.412Z,7.90
2018-01-16T08:39:24.726Z,7.80
2018-01-16T08:41:52.257Z,7.80
2018-01-16T08:44:20.565Z,7.70
2018-01-16T08:46:48.081Z,7.70
2018-01-16T08:49:16.344Z,7.80
2018-01-16T08:51:43.870Z,7.70
2018-01-16T08:54:11.386Z,7.70
2018-01-16T08:56:39.701Z,7.70
2018-01-16T08:59:07.221Z,7.60
2018-01-16T09:01:35.529Z,7.80
2018-01-16T09:04:03.063Z,7.80
2018-01-16T09:06:30.579Z,7.90
2018-01-16T09:08:58.095Z,8.00
2018-01-16T09:11:27.091Z,7.90
2018-01-16T09:13:54.617Z,7.80
2018-01-16T09:16:22.896Z,7.80
2018-01-16T09:18:51.172Z,7.80
2018-01-16T09:21:19.950Z,8.00
2018-01-16T09:23:48.239Z,8.10
2018-01-16T09:26:16.547Z,8.30
2018-01-16T09:28:44.062Z,8.30
2018-01-16T09:31:12.344Z,8.20
2018-01-16T09:33:40.618Z,8.30
2018-01-16T09:36:08.932Z,8.40
2018-01-16T09:38:36.467Z,8.40
2018-01-16T09:41:04.171Z,8.40
2018-01-16T09:43:31.763Z,8.40
2018-01-16T09:45:59.261Z,8.30
2018-01-16T09:48:26.805Z,8.50
2018-01-16T09:50:55.106Z,8.50
2018-01-16T09:53:22.632Z,8.50
2018-01-16T09:55:50.927Z,8.70
2018-01-16T09:58:18.455Z,8.70
2018-01-16T10:00:45.966Z,8.90
2018-01-16T10:03:13.496Z,8.90
2018-01-16T10:05:41.017Z,8.80
2018-01-16T10:08:08.582Z,8.80
2018-01-16T10:10:36.079Z,8.90
2018-01-16T10:13:03.616Z,9.00
2018-01-16T10:15:31.902Z,9.10
2018-01-16T10:18:00.178Z,9.20
2018-01-16T10:20:27.741Z,9.20
2018-01-16T10:22:55.268Z,9.30
2018-01-16T10:25:22.796Z,9.30
2018-01-16T10:27:50.343Z,9.40
2018-01-16T10:30:17.856Z,9.40
2018-01-16T10:32:46.159Z,9.50
2018-01-16T10:35:13.697Z,9.50
2018-01-16T10:37:42.028Z,9.40
2018-01-16T10:40:09.534Z,9.40
2018-01-16T10:42:37.811Z,9.50
2018-01-16T10:45:06.100Z,9.30
2018-01-16T10:47:34.380Z,9.40
2018-01-16T10:50:01.910Z,9.30
2018-01-16T10:52:29.431Z,9.30
2018-01-16T10:54:56.945Z,9.20
2018-01-16T10:57:25.297Z,9.20
2018-01-16T10:59:52.824Z,9.20
2018-01-16T11:02:20.382Z,9.10
2018-01-16T11:04:47.942Z,9.10
2018-01-16T11:07:15.712Z,9.10
2018-01-16T11:09:43.255Z,9.00
2018-01-16T11:12:10.772Z,8.80
2018-01-16T11:14:39.050Z,8.20
2018-01-16T11:17:07.359Z,7.90
2018-01-16T11:19:34.881Z,7.90
2018-01-16T11:22:02.432Z,7.70
2018-01-16T11:24:29.979Z,7.70
2018-01-16T11:26:57.502Z,7.50
2018-01-16T11:29:25.035Z,7.50
2018-01-16T11:31:53.325Z,7.40
2018-01-16T11:34:20.891Z,7.40
2018-01-16T11:36:48.455Z,7.40
2018-01-16T11:39:16.000Z,7.40
2018-01-16T11:41:43.517Z,7.50
2018-01-16T11:44:11.019Z,7.60
2018-01-16T11:46:38.560Z,7.60
2018-01-16T11:49:06.824Z,7.80
2018-01-16T11:51:35.112Z,8.10
2018-01-16T11:54:03.411Z,8.10
2018-01-16T11:56:30.919Z,8.10
2018-01-16T11:58:59.219Z,8.10
2018-01-16T12:01:27.557Z,8.00
2018-01-16T12:03:55.126Z,8.00
2018-01-16T12:06:22.650Z,7.90
2018-01-16T12:08:50.219Z,7.90
2018-01-16T12:11:17.780Z,7.70
2018-01-16T12:13:45.311Z,7.50
2018-01-16T12:16:12.823Z,7.60
2018-01-16T12:18:40.356Z,7.60
2018-01-16T12:21:07.877Z,7.50
2018-01-16T12:23:35.451Z,7.60
2018-01-16T12:26:02.973Z,7.80
2018-01-16T12:28:31.273Z,8.20
2018-01-16T12:30:58.820Z,8.20
2018-01-16T12:33:27.112Z,8.30
2018-01-16T12:35:54.665Z,8.30
2018-01-16T12:38:22.207Z,8.30
2018-01-16T12:40:49.753Z,8.20
2018-01-16T12:43:18.081Z,8.10
2018-01-16T12:45:45.638Z,8.10
2018-01-16T12:48:13.141Z,8.20
2018-01-16T12:50:41.263Z,8.30
2018-01-16T12:53:08.797Z,8.40
2018-01-16T12:55:37.082Z,8.30
2018-01-16T12:58:04.639Z,8.30
2018-01-16T13:00:32.164Z,8.40
2018-01-16T13:02:59.718Z,8.30
2018-01-16T13:05:27.252Z,8.40
2018-01-16T13:07:54.791Z,8.40
2018-01-16T13:10:22.367Z,8.40
2018-01-16T13:12:51.576Z,8.60
2018-01-16T13:15:19.120Z,8.60
2018-01-16T13:17:46.650Z,8.60
2018-01-16T13:20:14.968Z,8.60
2018-01-16T13:22:42.526Z,8.60
2018-01-16T13:25:10.058Z,8.50
2018-01-16T13:27:37.637Z,8.50
2018-01-16T13:30:05.155Z,8.40
2018-01-16T13:32:33.418Z,8.40
2018-01-16T13:35:00.945Z,8.30
2018-01-16T13:37:28.464Z,8.30
2018-01-16T13:39:56.009Z,8.30
2018-01-16T13:42:24.277Z,8.30
2018-01-16T13:44:52.562Z,8.20
2018-01-16T13:47:20.116Z,8.20
2018-01-16T13:49:48.376Z,8.20
2018-01-16T13:52:15.907Z,8.20
2018-01-16T13:54:43.419Z,8.20
2018-01-16T13:57:11.709Z,8.10
2018-01-16T13:59:39.247Z,8.10
2018-01-16T14:02:06.808Z,8.10
2018-01-16T14:04:35.109Z,8.10
2018-01-16T14:07:03.466Z,8.10
2018-01-16T14:09:31.007Z,8.00
2018-01-16T14:11:58.542Z,8.00
2018-01-16T14:14:26.088Z,8.00
2018-01-16T14:16:53.602Z,8.00
2018-01-16T14:19:21.896Z,7.90
2018-01-16T14:21:49.397Z,8.00
2018-01-16T14:24:16.926Z,8.00
2018-01-16T14:26:44.432Z,8.00
2018-01-16T14:29:11.951Z,8.20
2018-01-16T14:31:39.500Z,8.30
2018-01-16T14:34:07.030Z,8.30
2018-01-16T14:36:35.345Z,8.10
2018-01-16T14:39:02.861Z,8.20
2018-01-16T14:41:30.408Z,8.00
2018-01-16T14:43:58.695Z,7.90
2018-01-16T14:46:27.009Z,7.90
2018-01-16T14:48:54.526Z,7.90
2018-01-16T14:51:22.079Z,7.80
2018-01-16T14:53:49.643Z,7.70
2018-01-16T14:56:17.151Z,7.80
2018-01-16T14:58:44.688Z,7.90
2018-01-16T15:01:12.235Z,7.90
2018-01-16T15:03:39.748Z,7.90
2018-01-16T15:06:07.263Z,7.80
2018-01-16T15:08:34.805Z,7.70
2018-01-16T15:11:03.076Z,7.60
2018-01-16T15:13:31.377Z,7.60
2018-01-16T15:15:58.887Z,7.60
2018-01-16T15:18:26.395Z,7.70
2018-01-16T15:20:53.939Z,7.60
2018-01-16T15:23:21.446Z,7.60
2018-01-16T15:25:48.988Z,7.50
2018-01-16T15:28:16.504Z,7.40
2018-01-16T15:30:44.816Z,7.30
2018-01-16T15:33:12.308Z,7.30
2018-01-16T15:35:39.842Z,7.20
2018-01-16T15:38:08.115Z,7.20
2018-01-16T15:40:35.651Z,7.30
2018-01-16T15:43:03.186Z,7.20
2018-01-16T15:45:31.493Z,7.20
2018-01-16T15:47:59.047Z,7.20
2018-01-16T15:50:26.559Z,7.10
2018-01-16T15:52:54.710Z,7.00
2018-01-16T15:55:23.474Z,6.90
2018-01-16T15:57:51.056Z,6.90
2018-01-16T16:00:18.561Z,6.90
2018-01-16T16:02:46.980Z,6.90
2018-01-16T16:05:17.527Z,6.90
2018-01-16T16:07:46.036Z,7.00
2018-01-16T16:10:14.988Z,7.00
2018-01-16T16:12:43.888Z,6.90
2018-01-16T16:15:11.578Z,6.90
2018-01-16T16:17:39.487Z,6.90
2018-01-16T16:20:07.053Z,6.90
2018-01-16T16:22:34.579Z,6.90
2018-01-16T16:25:03.335Z,6.90
2018-01-16T16:27:31.522Z,6.90
2018-01-16T16:29:59.813Z,6.90
2018-01-16T16:32:27.360Z,6.90
2018-01-16T16:34:54.908Z,6.90
2018-01-16T16:37:22.417Z,6.90
2018-01-16T16:39:49.978Z,6.90
2018-01-16T16:42:17.554Z,6.90
2018-01-16T16:44:45.076Z,6.90
2018-01-16T16:47:13.411Z,7.00
2018-01-16T16:49:40.915Z,7.00
2018-01-16T16:52:09.276Z,6.90
2018-01-16T16:54:36.828Z,6.90
2018-01-16T16:57:04.447Z,7.00
2018-01-16T16:59:31.984Z,7.00
2018-01-16T17:01:59.517Z,7.10
2018-01-16T17:04:27.886Z,7.10
2018-01-16T17:06:55.510Z,7.10
2018-01-16T17:09:23.020Z,7.10
2018-01-16T17:11:51.340Z,7.00
2018-01-16T17:14:18.925Z,7.00
2018-01-16T17:16:46.519Z,7.00
2018-01-16T17:19:14.830Z,7.00
2018-01-16T17:21:42.338Z,6.90
2018-01-16T17:24:09.869Z,7.00
2018-01-16T17:26:37.379Z,7.00
2018-01-16T17:29:05.687Z,7.20
2018-01-16T17:31:33.232Z,7.20
2018-01-16T17:34:00.780Z,7.10
2018-01-16T17:36:28.341Z,7.00
2018-01-16T17:38:55.860Z,7.00
2018-01-16T17:41:23.372Z,7.00
2018-01-16T17:43:50.944Z,7.00
2018-01-16T17:46:18.461Z,6.80
2018-01-16T17:48:46.750Z,6.50
2018-01-16T17:51:15.072Z,6.40
2018-01-16T17:53:42.615Z,6.40
2018-01-16T17:56:10.128Z,6.20
2018-01-16T17:58:37.655Z,6.00
2018-01-16T18:01:05.193Z,5.90
2018-01-16T18:03:32.764Z,6.00
2018-01-16T18:06:00.299Z,5.90
2018-01-16T18:08:27.815Z,5.80
2018-01-16T18:10:55.371Z,5.80
2018-01-16T18:13:22.891Z,5.80
2018-01-16T18:15:50.413Z,5.60
2018-01-16T18:18:18.703Z,5.60
2018-01-16T18:20:46.263Z,5.50
2018-01-16T18:23:13.815Z,5.40
2018-01-16T18:25:41.381Z,5.40
2018-01-16T18:28:08.916Z,5.50
2018-01-16T18:30:37.210Z,5.50
2018-01-16T18:33:04.718Z,5.50
2018-01-16T18:35:32.242Z,5.50
2018-01-16T18:37:59.819Z,5.50
2018-01-16T18:40:27.298Z,5.50
2018-01-16T18:42:54.847Z,5.40
2018-01-16T18:45:22.364Z,5.40
2018-01-16T18:47:49.900Z,5.30
2018-01-16T18:50:17.394Z,5.40
2018-01-16T18:52:44.961Z,5.40
2018-01-16T18:55:12.460Z,5.30
2018-01-16T18:57:39.990Z,5.30
2018-01-16T19:00:07.512Z,5.30
2018-01-16T19:02:36.156Z,5.20
2018-01-16T19:05:03.674Z,5.20
2018-01-16T19:07:31.651Z,5.30
2018-01-16T19:09:59.234Z,5.30
2018-01-16T19:12:26.741Z,5.20
2018-01-16T19:14:54.302Z,5.10
2018-01-16T19:17:22.130Z,5.00
2018-01-16T19:19:49.674Z,5.00
2018-01-16T19:22:17.225Z,5.10
2018-01-16T19:24:45.050Z,5.10
2018-01-16T19:27:12.807Z,5.10
2018-01-16T19:29:40.340Z,5.00
2018-01-16T19:32:07.912Z,4.90
2018-01-16T19:34:35.415Z,4.90
2018-01-16T19:37:03.738Z,4.80
2018-01-16T19:39:31.281Z,4.80
2018-01-16T19:41:58.934Z,4.90
2018-01-16T19:44:27.435Z,5.00
2018-01-16T19:46:54.961Z,4.90
2018-01-16T19:49:22.528Z,5.00
2018-01-16T19:51:55.068Z,4.90
2018-01-16T19:54:22.597Z,4.90
2018-01-16T19:56:50.720Z,5.00
2018-01-16T19:59:18.912Z,4.90
2018-01-16T20:01:46.415Z,4.90
2018-01-16T20:04:17.590Z,4.90
2018-01-16T20:06:46.358Z,4.90
2018-01-16T20:09:14.640Z,4.80
2018-01-16T20:11:42.205Z,4.70
2018-01-16T20:14:09.986Z,4.80
2018-01-16T20:16:38.524Z,4.70
2018-01-16T20:19:06.104Z,4.70
2018-01-16T20:21:34.415Z,4.60
2018-01-16T20:24:01.911Z,4.60
2018-01-16T20:26:29.480Z,4.60
2018-01-16T20:28:57.842Z,4.50
2018-01-16T20:31:26.144Z,4.50
2018-01-16T20:33:54.442Z,4.50
2018-01-16T20:36:22.666Z,4.50
2018-01-16T20:38:50.540Z,4.50
2018-01-16T20:41:18.058Z,4.50
2018-01-16T20:43:45.551Z,4.50
2018-01-16T20:46:13.126Z,4.50
2018-01-16T20:48:40.772Z,4.50
2018-01-16T20:51:08.590Z,4.50
2018-01-16T20:53:36.467Z,4.50
2018-01-16T20:56:04.045Z,4.50
2018-01-16T20:58:31.567Z,4.50
2018-01-16T21:00:59.427Z,4.40
2018-01-16T21:03:27.620Z,4.40
2018-01-16T21:05:55.240Z,4.40
2018-01-16T21:08:22.817Z,4.30
2018-01-16T21:10:51.086Z,4.30
2018-01-16T21:13:19.660Z,4.20
2018-01-16T21:15:48.515Z,4.20
2018-01-16T21:18:16.898Z,4.20
2018-01-16T21:20:44.424Z,4.20
2018-01-16T21:23:11.960Z,4.20
2018-01-16T21:25:40.241Z,4.20
2018-01-16T21:28:09.171Z,4.20
2018-01-16T21:30:36.682Z,4.20
2018-01-16T21:33:04.947Z,4.20
2018-01-16T21:35:32.483Z,4.20
2018-01-16T21:37:59.988Z,4.30
2018-01-16T21:40:27.524Z,4.30
2018-01-16T21:42:55.060Z,4.30
2018-01-16T21:45:22.595Z,4.30
2018-01-16T21:47:50.109Z,4.20
2018-01-16T21:50:17.656Z,4.20
2018-01-16T21:52:45.181Z,4.20
2018-01-16T21:55:12.671Z,4.30
2018-01-16T21:57:41.034Z,4.20
2018-01-16T22:00:08.507Z,4.20
2018-01-16T22:02:36.109Z,4.20
2018-01-16T22:05:03.649Z,4.20
2018-01-16T22:07:31.173Z,4.20
2018-01-16T22:09:58.679Z,4.20
2018-01-16T22:12:26.219Z,4.20
2018-01-16T22:14:53.764Z,4.30
2018-01-16T22:17:22.065Z,4.30
2018-01-16T22:19:49.591Z,4.30
2018-01-16T22:22:17.132Z,4.30
2018-01-16T22:24:44.636Z,4.30
2018-01-16T22:27:12.156Z,4.30
2018-01-16T22:29:39.681Z,4.40
2018-01-16T22:32:07.198Z,4.40
2018-01-16T22:34:35.504Z,4.50
2018-01-16T22:37:03.012Z,4.40
2018-01-16T22:39:30.506Z,4.50
2018-01-16T22:41:58.051Z,4.60
2018-01-16T22:44:25.563Z,4.60
2018-01-16T22:46:53.086Z,4.60
2018-01-16T22:49:20.607Z,4.60
2018-01-16T22:51:48.129Z,4.60
2018-01-16T22:54:15.675Z,4.70
2018-01-16T22:56:43.169Z,4.70
2018-01-16T22:59:10.682Z,4.80
2018-01-16T23:01:38.214Z,4.90
2018-01-16T23:04:06.498Z,4.90
2018-01-16T23:06:34.786Z,4.90
2018-01-16T23:09:02.294Z,4.90
2018-01-16T23:11:29.830Z,4.90
2018-01-16T23:13:57.350Z,4.90
2018-01-16T23:16:24.887Z,4.90
2018-01-16T23:18:52.406Z,5.00
2018-01-16T23:21:19.963Z,5.00
2018-01-16T23:23:47.486Z,5.00
2018-01-16T23:26:15.755Z,4.90
2018-01-16T23:28:44.066Z,4.90
2018-01-16T23:31:11.601Z,4.90
2018-01-16T23:33:39.860Z,5.00
2018-01-16T23:36:07.365Z,5.00
2018-01-16T23:38:34.921Z,5.00
2018-01-16T23:41:02.459Z,5.00
2018-01-16T23:43:29.958Z,5.00
2018-01-16T23:45:57.486Z,5.00
2018-01-16T23:48:24.977Z,5.00
2018-01-16T23:50:52.500Z,5.00
2018-01-16T23:53:19.998Z,4.90
2018-01-16T23:55:47.507Z,4.90
2018-01-16T23:58:15.026Z,4.90
